Time;durP1;ratioP1;P1;durP2;ratioP2;P2;SDS_P1;SDS_P2;PMS_P1;PMS_P2;Temp;Humidity;BMP_temperature;BMP_pressure;BME280_temperature;BME280_humidity;BME280_pressure;Samples;Min_cycle;Max_cycle;Signal;HPM_P1;HPM_P2
2023/07/29 00:01:35;;;;;;;36.58;33.22;;;20.90;99.90;;;;;;4945684;28;20485;-68
2023/07/29 00:04:01;;;;;;;36.15;32.85;;;20.00;99.90;;;;;;4954413;28;20070;-68
2023/07/29 00:06:27;;;;;;;36.35;33.00;;;21.00;99.90;;;;;;4954129;28;20401;-68
2023/07/29 00:08:53;;;;;;;36.20;32.80;;;20.90;99.90;;;;;;4953656;28;20039;-68
2023/07/29 00:11:18;;;;;;;36.20;32.80;;;19.90;99.90;;;;;;4953275;29;20130;-67
2023/07/29 00:13:44;;;;;;;36.80;33.38;;;20.60;99.90;;;;;;4952815;29;20050;-68
2023/07/29 00:16:10;;;;;;;36.78;33.25;;;20.30;99.90;;;;;;4953634;28;20054;-68
2023/07/29 00:18:35;;;;;;;37.83;34.30;;;20.30;99.90;;;;;;4945486;29;20139;-68
2023/07/29 00:21:01;;;;;;;35.90;32.47;;;20.00;99.90;;;;;;4947050;29;20106;-68
2023/07/29 00:23:26;;;;;;;35.67;32.45;;;20.70;99.90;;;;;;4954162;29;20038;-68
2023/07/29 00:25:52;;;;;;;36.78;32.92;;;20.80;99.90;;;;;;4952965;29;20051;-68
2023/07/29 00:28:17;;;;;;;35.10;32.00;;;20.90;99.90;;;;;;4953529;28;20057;-68
2023/07/29 00:30:43;;;;;;;35.65;32.45;;;20.40;99.90;;;;;;4951912;29;20126;-68
2023/07/29 00:33:09;;;;;;;36.13;32.88;;;20.60;99.90;;;;;;4952193;29;20448;-68
2023/07/29 00:35:35;;;;;;;35.88;32.50;;;20.60;99.90;;;;;;4952648;29;20102;-68
2023/07/29 00:38:01;;;;;;;35.47;32.38;;;20.40;99.90;;;;;;4945318;29;20047;-68
2023/07/29 00:40:28;;;;;;;35.40;32.10;;;19.90;99.90;;;;;;4952802;29;20137;-68
2023/07/29 00:42:54;;;;;;;35.25;32.17;;;20.90;99.90;;;;;;4953155;28;20034;-68
2023/07/29 00:45:20;;;;;;;36.38;33.28;;;20.40;99.90;;;;;;4953399;29;20047;-67
2023/07/29 00:47:46;;;;;;;34.13;30.77;;;19.80;99.90;;;;;;4951245;29;20421;-68
2023/07/29 00:50:13;;;;;;;35.28;31.75;;;19.70;99.90;;;;;;4952464;28;20035;-68
2023/07/29 00:52:38;;;;;;;35.00;31.70;;;20.70;99.90;;;;;;4952989;29;20035;-68
2023/07/29 00:55:06;;;;;;;35.20;31.42;;;19.70;99.90;;;;;;4953157;29;20080;-67
2023/07/29 00:57:32;;;;;;;35.35;32.00;;;19.70;99.90;;;;;;4951493;29;20047;-68
2023/07/29 00:59:59;;;;;;;35.33;32.13;;;20.90;99.90;;;;;;4946346;28;20492;-68
2023/07/29 01:02:26;;;;;;;34.55;31.15;;;19.80;99.90;;;;;;4948446;28;20367;-68
2023/07/29 01:08:24;;;;;;;35.03;31.50;;;20.70;99.90;;;;;;4944411;28;20078;-85
2023/07/29 01:11:03;;;;;;;34.30;31.33;;;20.80;99.90;;;;;;4941040;29;20576;-85
2023/07/29 01:13:41;;;;;;;35.13;31.77;;;22.00;99.90;;;;;;4935090;29;20130;-85
2023/07/29 01:16:40;;;;;;;34.33;31.05;;;21.10;99.90;;;;;;4951453;29;20050;-85
2023/07/29 01:19:07;;;;;;;33.85;30.83;;;20.80;99.90;;;;;;4914097;29;20111;-86
2023/07/29 01:21:36;;;;;;;34.55;31.48;;;20.30;99.90;;;;;;4950691;29;20043;-85
2023/07/29 01:24:01;;;;;;;34.85;31.75;;;20.00;99.90;;;;;;4941865;29;20052;-85
2023/07/29 01:26:29;;;;;;;34.60;31.27;;;21.10;99.90;;;;;;4947709;29;20047;-85
2023/07/29 01:28:56;;;;;;;35.05;31.67;;;21.90;99.90;;;;;;4948264;28;20043;-85
2023/07/29 01:31:36;;;;;;;34.30;31.08;;;19.90;99.90;;;;;;4948199;29;20035;-85
2023/07/29 01:34:13;;;;;;;35.85;32.22;;;19.90;99.90;;;;;;4951495;29;20043;-85
2023/07/29 01:36:41;;;;;;;34.33;31.10;;;20.20;99.90;;;;;;4950348;29;20035;-85
2023/07/29 01:39:08;;;;;;;36.03;32.50;;;21.20;99.90;;;;;;4951394;29;20042;-85
2023/07/29 01:41:35;;;;;;;35.33;32.00;;;21.20;99.90;;;;;;4951111;29;20050;-85
2023/07/29 01:44:01;;;;;;;35.47;32.22;;;21.90;99.90;;;;;;4950915;29;20054;-85
2023/07/29 01:46:27;;;;;;;34.75;31.52;;;22.40;99.90;;;;;;4951396;29;20043;-85
2023/07/29 01:48:52;;;;;;;35.22;31.75;;;20.00;99.90;;;;;;4950965;28;20605;-85
2023/07/29 01:51:18;;;;;;;35.20;31.77;;;21.20;99.90;;;;;;4950576;29;20462;-86
2023/07/29 01:53:44;;;;;;;34.50;31.25;;;20.10;99.90;;;;;;4951573;29;20121;-85
2023/07/29 01:56:09;;;;;;;33.90;30.73;;;19.90;99.90;;;;;;4949946;29;20070;-85
2023/07/29 01:58:35;;;;;;;34.08;30.90;;;20.20;99.90;;;;;;4951158;29;20043;-85
2023/07/29 02:01:00;;;;;;;33.90;30.90;;;21.20;99.90;;;;;;4951258;29;20053;-85
2023/07/29 02:03:26;;;;;;;39.40;31.40;;;20.30;99.90;;;;;;4950087;29;20521;-85
2023/07/29 02:05:52;;;;;;;34.58;30.33;;;21.10;99.90;;;;;;4949236;29;20551;-85
2023/07/29 02:08:17;;;;;;;34.72;31.35;;;21.40;99.90;;;;;;4942473;29;20083;-85
2023/07/29 02:10:45;;;;;;;33.92;30.90;;;21.00;99.90;;;;;;4949621;29;20134;-85
2023/07/29 02:13:11;;;;;;;34.17;30.80;;;21.40;99.90;;;;;;4930277;29;20098;-86
2023/07/29 02:15:37;;;;;;;33.50;30.25;;;21.40;99.90;;;;;;4936149;29;20036;-86
2023/07/29 02:18:03;;;;;;;33.08;29.95;;;21.10;99.90;;;;;;4916159;29;20528;-85
2023/07/29 02:20:29;;;;;;;31.67;28.92;;;20.00;99.90;;;;;;4946697;29;20098;-85
2023/07/29 02:22:54;;;;;;;32.83;29.92;;;21.30;99.90;;;;;;4951165;29;20043;-85
2023/07/29 02:25:20;;;;;;;32.03;29.15;;;19.90;99.90;;;;;;4948616;29;20105;-85
2023/07/29 02:27:46;;;;;;;32.22;29.17;;;21.10;99.90;;;;;;4934724;29;20051;-85
2023/07/29 02:30:12;;;;;;;32.67;29.35;;;20.80;99.90;;;;;;4929796;29;20493;-86
2023/07/29 02:32:38;;;;;;;34.13;30.48;;;21.20;99.90;;;;;;4951176;29;20125;-85
2023/07/29 02:35:04;;;;;;;35.08;29.95;;;20.10;99.90;;;;;;4932390;29;20122;-85
2023/07/29 02:37:30;;;;;;;33.10;29.70;;;19.60;99.90;;;;;;4932018;29;20142;-85
2023/07/29 02:39:55;;;;;;;33.10;29.90;;;20.80;99.90;;;;;;4937932;28;20122;-85
2023/07/29 02:42:21;;;;;;;31.77;28.73;;;19.80;99.90;;;;;;4935119;29;20054;-85
2023/07/29 02:44:47;;;;;;;31.83;28.95;;;20.60;99.90;;;;;;4946056;29;20043;-85
2023/07/29 02:47:12;;;;;;;32.30;28.95;;;19.70;99.90;;;;;;4954308;29;20090;-85
2023/07/29 02:49:38;;;;;;;31.05;28.25;;;20.70;99.90;;;;;;4953940;29;20046;-85
2023/07/29 02:52:04;;;;;;;32.88;29.70;;;20.10;99.90;;;;;;4939687;29;20452;-85
2023/07/29 02:54:29;;;;;;;32.72;29.17;;;20.00;99.90;;;;;;4951542;29;20043;-85
2023/07/29 02:56:55;;;;;;;30.42;27.75;;;20.60;99.90;;;;;;4937449;29;20043;-85
2023/07/29 02:59:20;;;;;;;30.88;27.83;;;19.60;99.90;;;;;;4936644;29;20605;-85
2023/07/29 03:01:46;;;;;;;31.55;28.80;;;19.70;99.90;;;;;;4952074;29;20070;-85
2023/07/29 03:04:13;;;;;;;30.48;27.85;;;20.30;99.90;;;;;;4952743;29;20583;-85
2023/07/29 03:06:38;;;;;;;30.52;27.83;;;21.10;99.90;;;;;;4935197;29;20052;-85
2023/07/29 03:09:04;;;;;;;30.48;27.70;;;19.80;99.90;;;;;;4951433;29;20154;-85
2023/07/29 03:11:30;;;;;;;31.25;28.23;;;20.20;99.90;;;;;;4944541;29;20040;-85
2023/07/29 03:13:56;;;;;;;30.80;28.00;;;19.40;99.90;;;;;;4938817;29;20416;-85
2023/07/29 03:16:22;;;;;;;31.70;27.83;;;20.10;99.90;;;;;;4940933;29;20046;-86
2023/07/29 03:18:48;;;;;;;31.67;28.52;;;19.10;99.90;;;;;;4942120;29;20044;-85
2023/07/29 03:21:14;;;;;;;31.40;28.60;;;20.20;99.90;;;;;;4935364;29;20047;-85
2023/07/29 03:23:40;;;;;;;31.48;28.10;;;19.30;99.90;;;;;;4945186;29;20054;-85
2023/07/29 03:26:12;;;;;;;30.90;28.00;;;19.50;99.90;;;;;;4937778;29;20498;-85
2023/07/29 03:28:41;;;;;;;31.90;28.77;;;19.90;99.90;;;;;;4929987;29;20043;-85
2023/07/29 03:31:07;;;;;;;30.55;27.77;;;20.90;99.90;;;;;;4927340;29;20046;-85
2023/07/29 03:33:33;;;;;;;29.92;27.23;;;19.20;99.90;;;;;;4952457;29;20039;-85
2023/07/29 03:35:59;;;;;;;30.50;27.70;;;20.50;99.90;;;;;;4937101;29;20386;-84
2023/07/29 03:38:24;;;;;;;30.90;28.10;;;20.30;99.90;;;;;;4953467;29;20040;-84
2023/07/29 03:40:51;;;;;;;33.63;28.50;;;19.10;99.90;;;;;;4935719;29;20094;-84
2023/07/29 03:43:16;;;;;;;31.33;28.38;;;19.70;99.90;;;;;;4936976;29;20039;-85
2023/07/29 03:45:42;;;;;;;31.63;28.67;;;19.80;99.90;;;;;;4952566;29;20567;-85
2023/07/29 03:48:08;;;;;;;31.10;27.98;;;19.70;99.90;;;;;;4936079;29;20548;-84
2023/07/29 03:50:35;;;;;;;32.08;29.08;;;19.90;99.90;;;;;;4944510;29;20050;-84
2023/07/29 03:53:02;;;;;;;31.05;28.35;;;19.10;99.90;;;;;;4936622;29;20047;-85
2023/07/29 03:55:29;;;;;;;31.33;28.38;;;20.50;99.90;;;;;;4936796;29;20059;-85
2023/07/29 03:57:56;;;;;;;31.48;28.50;;;19.30;99.90;;;;;;4934963;29;20745;-84
2023/07/29 04:00:21;;;;;;;33.85;30.75;;;20.20;99.90;;;;;;4950805;29;20405;-85
2023/07/29 04:02:47;;;;;;;34.13;31.02;;;20.00;99.90;;;;;;4948142;29;20035;-85
2023/07/29 04:05:13;;;;;;;33.65;30.40;;;20.20;99.90;;;;;;4933796;29;20122;-85
2023/07/29 04:07:39;;;;;;;33.70;30.58;;;19.20;99.90;;;;;;4934285;29;20055;-85
2023/07/29 04:10:05;;;;;;;33.35;30.15;;;19.10;99.90;;;;;;4950005;29;20493;-85
2023/07/29 04:12:31;;;;;;;33.17;29.65;;;19.60;99.90;;;;;;4953506;29;20151;-85
2023/07/29 04:14:57;;;;;;;33.22;30.05;;;19.20;99.90;;;;;;4931309;29;20122;-84
2023/07/29 04:17:22;;;;;;;33.67;30.38;;;20.20;99.90;;;;;;4934307;29;20112;-84
2023/07/29 04:19:48;;;;;;;33.80;30.55;;;19.10;99.90;;;;;;4923946;29;20497;-85
2023/07/29 04:22:15;;;;;;;33.30;30.33;;;21.20;99.90;;;;;;4953510;29;20110;-85
2023/07/29 04:24:41;;;;;;;33.85;30.63;;;19.70;99.90;;;;;;4925314;29;20044;-85
2023/07/29 04:27:06;;;;;;;34.03;30.63;;;19.40;99.90;;;;;;4934096;29;20098;-84
2023/07/29 04:29:32;;;;;;;33.63;30.15;;;20.30;99.90;;;;;;4935153;29;20052;-85
2023/07/29 04:31:57;;;;;;;33.60;30.40;;;20.30;99.90;;;;;;4934208;29;20383;-85
2023/07/29 04:34:23;;;;;;;33.92;30.35;;;19.30;99.90;;;;;;4943813;29;20473;-85
2023/07/29 04:36:49;;;;;;;34.13;30.73;;;21.20;99.90;;;;;;4947653;29;20035;-85
2023/07/29 04:39:15;;;;;;;33.10;29.75;;;19.90;99.90;;;;;;4943133;29;20083;-84
2023/07/29 04:41:40;;;;;;;33.30;29.90;;;21.70;99.90;;;;;;4947338;29;20047;-85
2023/07/29 04:44:06;;;;;;;33.13;29.67;;;21.00;99.90;;;;;;4936892;29;20667;-85
2023/07/29 04:46:32;;;;;;;32.90;29.48;;;20.60;99.90;;;;;;4952330;29;20058;-84
2023/07/29 04:48:58;;;;;;;34.10;30.80;;;20.70;99.90;;;;;;4952208;28;20039;-85
2023/07/29 04:51:24;;;;;;;33.00;29.75;;;20.70;99.90;;;;;;4935631;29;20137;-85
2023/07/29 04:53:50;;;;;;;34.50;31.00;;;21.40;99.90;;;;;;4949768;29;20043;-85
2023/07/29 04:56:15;;;;;;;33.03;29.73;;;20.20;99.90;;;;;;4947373;29;20035;-85
2023/07/29 04:58:41;;;;;;;33.05;30.05;;;19.50;99.90;;;;;;4950335;29;20527;-85
2023/07/29 05:01:06;;;;;;;34.13;30.63;;;21.10;99.90;;;;;;4942067;29;20058;-85
2023/07/29 05:03:32;;;;;;;32.65;29.52;;;20.80;99.90;;;;;;4932781;29;20086;-85
2023/07/29 05:05:59;;;;;;;32.60;29.25;;;20.70;99.90;;;;;;4928437;29;20421;-84
2023/07/29 05:08:26;;;;;;;33.17;29.80;;;20.10;99.90;;;;;;4939653;29;20055;-85
2023/07/29 05:10:52;;;;;;;35.40;31.23;;;20.80;99.90;;;;;;4944468;29;20043;-85
2023/07/29 05:13:18;;;;;;;36.65;30.23;;;20.80;99.90;;;;;;4962822;28;20049;-85
2023/07/29 05:15:44;;;;;;;35.92;30.77;;;20.80;99.90;;;;;;4930886;29;20049;-85
2023/07/29 05:18:10;;;;;;;33.65;30.08;;;20.70;99.90;;;;;;4939146;28;20477;-85
2023/07/29 05:20:36;;;;;;;35.05;30.50;;;21.70;99.90;;;;;;4927869;29;20121;-85
2023/07/29 05:23:01;;;;;;;34.47;30.75;;;21.00;99.90;;;;;;4939902;29;20130;-85
2023/07/29 05:25:27;;;;;;;33.95;30.45;;;20.80;99.90;;;;;;4943453;29;20053;-85
2023/07/29 05:27:53;;;;;;;36.92;30.83;;;20.70;99.90;;;;;;4957673;28;20140;-85
2023/07/29 05:30:18;;;;;;;34.40;30.75;;;20.80;99.90;;;;;;4927484;29;20556;-85
2023/07/29 05:32:44;;;;;;;34.08;30.52;;;21.00;99.90;;;;;;4924008;29;20844;-85
2023/07/29 05:35:10;;;;;;;33.28;29.58;;;20.90;99.90;;;;;;4941845;29;20183;-85
2023/07/29 05:37:42;;;;;;;33.70;30.15;;;20.30;99.90;;;;;;4945637;29;20110;-85
2023/07/29 05:40:10;;;;;;;33.55;30.00;;;20.40;99.90;;;;;;4928281;29;21550;-85
2023/07/29 05:42:36;;;;;;;37.20;30.60;;;21.20;99.90;;;;;;4945555;29;20074;-85
2023/07/29 05:45:02;;;;;;;34.13;30.33;;;20.90;99.90;;;;;;4935249;29;20067;-85
2023/07/29 05:47:28;;;;;;;35.38;31.42;;;20.50;99.90;;;;;;4950535;29;20562;-85
2023/07/29 05:49:54;;;;;;;35.17;31.25;;;21.10;99.90;;;;;;4945573;29;20039;-85
2023/07/29 05:52:20;;;;;;;33.75;30.25;;;20.50;99.90;;;;;;4928773;29;20043;-85
2023/07/29 05:54:45;;;;;;;39.03;31.02;;;20.50;99.90;;;;;;4930834;29;20040;-85
2023/07/29 05:57:11;;;;;;;33.63;30.30;;;21.20;99.90;;;;;;4950149;28;20050;-85
2023/07/29 05:59:37;;;;;;;37.72;31.30;;;20.40;99.90;;;;;;4927796;29;20043;-85
2023/07/29 06:02:03;;;;;;;39.22;31.17;;;21.30;99.90;;;;;;4946020;29;20640;-85
2023/07/29 06:04:29;;;;;;;35.78;31.88;;;20.50;99.90;;;;;;4942831;29;20047;-85
2023/07/29 06:06:55;;;;;;;34.83;31.30;;;21.40;99.90;;;;;;4942534;29;20425;-85
2023/07/29 06:09:22;;;;;;;36.25;31.40;;;21.00;99.90;;;;;;4927674;29;20047;-85
2023/07/29 06:11:47;;;;;;;40.53;31.98;;;21.40;99.90;;;;;;4929931;29;20051;-85
2023/07/29 06:14:13;;;;;;;34.97;31.23;;;20.30;99.90;;;;;;4933452;29;20040;-85
2023/07/29 06:16:38;;;;;;;37.72;31.20;;;21.60;99.90;;;;;;4953552;28;20038;-85
2023/07/29 06:19:04;;;;;;;33.83;30.25;;;20.80;99.90;;;;;;4945061;29;20039;-85
2023/07/29 06:21:30;;;;;;;31.80;28.08;;;21.90;99.90;;;;;;4936460;29;20502;-85
2023/07/29 06:23:56;;;;;;;35.22;29.30;;;21.40;99.90;;;;;;4964512;28;20560;-85
2023/07/29 06:26:21;;;;;;;32.33;28.83;;;23.40;99.90;;;;;;4949685;28;20031;-85
2023/07/29 06:28:47;;;;;;;34.05;30.63;;;21.20;99.90;;;;;;4950801;28;20047;-85
2023/07/29 06:31:12;;;;;;;33.25;29.65;;;20.30;99.90;;;;;;4952339;28;20039;-85
2023/07/29 06:33:38;;;;;;;32.80;29.20;;;20.50;99.90;;;;;;4939781;29;20038;-85
2023/07/29 06:36:04;;;;;;;33.28;29.58;;;22.00;99.90;;;;;;4949746;28;20106;-85
2023/07/29 06:38:30;;;;;;;36.45;30.38;;;20.30;99.90;;;;;;4955479;28;20126;-85
2023/07/29 06:40:55;;;;;;;34.20;30.35;;;21.20;99.90;;;;;;4956218;29;20622;-85
2023/07/29 06:43:21;;;;;;;32.90;29.50;;;21.30;99.90;;;;;;4956336;29;20047;-85
2023/07/29 06:45:46;;;;;;;34.78;30.52;;;21.60;99.90;;;;;;4925899;29;20049;-85
2023/07/29 06:48:12;;;;;;;33.97;30.35;;;21.00;99.90;;;;;;4950743;28;20038;-85
2023/07/29 06:50:38;;;;;;;33.95;30.17;;;23.40;99.90;;;;;;4949569;29;20043;-85
2023/07/29 06:53:03;;;;;;;33.45;30.10;;;20.40;99.90;;;;;;4937906;29;20044;-85
2023/07/29 06:55:29;;;;;;;32.22;29.00;;;20.90;99.90;;;;;;4933594;29;20501;-85
2023/07/29 06:57:55;;;;;;;33.78;30.02;;;21.30;99.90;;;;;;4959554;28;20511;-85
2023/07/29 07:00:20;;;;;;;32.95;29.00;;;20.80;99.90;;;;;;4953541;29;20098;-85
2023/07/29 07:02:46;;;;;;;32.05;28.95;;;23.80;99.90;;;;;;4937406;29;20047;-85
2023/07/29 07:05:11;;;;;;;29.92;26.95;;;22.70;99.90;;;;;;4954631;28;20039;-85
2023/07/29 07:07:37;;;;;;;29.95;26.95;;;22.10;99.90;;;;;;4929626;29;20063;-85
2023/07/29 07:10:03;;;;;;;31.08;27.98;;;21.20;99.90;;;;;;4955373;28;20150;-85
2023/07/29 07:12:29;;;;;;;31.67;28.42;;;21.90;99.90;;;;;;4939904;29;20039;-85
2023/07/29 07:14:54;;;;;;;30.10;27.25;;;22.40;99.90;;;;;;4935604;29;20121;-85
2023/07/29 07:17:20;;;;;;;30.40;27.58;;;22.30;99.90;;;;;;4960303;28;20042;-85
2023/07/29 07:19:46;;;;;;;29.10;26.30;;;21.40;99.90;;;;;;4956772;28;20032;-87
2023/07/29 07:22:11;;;;;;;33.60;27.10;;;21.70;99.90;;;;;;4941175;29;20039;-85
2023/07/29 07:24:37;;;;;;;30.65;27.52;;;21.70;99.90;;;;;;4938386;29;20043;-85
2023/07/29 07:27:03;;;;;;;28.45;25.63;;;21.80;99.90;;;;;;4957599;28;20047;-85
2023/07/29 07:29:29;;;;;;;30.02;26.92;;;21.90;99.90;;;;;;4954613;28;20512;-85
2023/07/29 07:31:56;;;;;;;29.60;26.75;;;21.60;99.90;;;;;;4936687;28;20040;-86
2023/07/29 07:34:22;;;;;;;29.92;26.75;;;21.70;99.90;;;;;;4941055;29;20127;-85
2023/07/29 07:36:49;;;;;;;30.58;27.55;;;22.20;99.90;;;;;;4929511;29;20039;-85
2023/07/29 07:39:15;;;;;;;29.05;26.30;;;22.10;99.90;;;;;;4945010;28;21905;-85
2023/07/29 07:41:41;;;;;;;30.60;27.60;;;22.20;99.90;;;;;;4935256;29;20139;-85
2023/07/29 07:44:07;;;;;;;30.08;27.08;;;21.70;99.90;;;;;;4953328;29;20039;-85
2023/07/29 07:46:33;;;;;;;27.85;25.25;;;22.00;99.90;;;;;;4933928;29;20047;-85
2023/07/29 07:48:58;;;;;;;26.15;23.80;;;22.30;99.90;;;;;;4948116;28;20496;-85
2023/07/29 07:51:24;;;;;;;27.17;24.60;;;22.70;99.90;;;;;;4927094;29;20035;-85
2023/07/29 07:53:50;;;;;;;26.48;24.08;;;22.90;99.90;;;;;;4944998;29;20110;-85
2023/07/29 07:56:16;;;;;;;27.58;24.75;;;22.80;99.90;;;;;;4946043;28;20042;-85
2023/07/29 07:58:41;;;;;;;28.95;26.05;;;22.80;99.90;;;;;;4949106;29;20029;-85
2023/07/29 08:01:08;;;;;;;28.42;25.63;;;22.80;99.90;;;;;;4938323;29;20039;-85
2023/07/29 08:03:35;;;;;;;28.38;25.73;;;22.50;99.90;;;;;;4952691;29;20099;-85
2023/07/29 08:06:01;;;;;;;27.10;24.58;;;22.30;99.90;;;;;;4950688;28;20621;-85
2023/07/29 08:08:27;;;;;;;27.02;24.45;;;22.50;99.90;;;;;;4940905;29;20079;-85
2023/07/29 08:10:54;;;;;;;23.70;21.50;;;22.80;99.90;;;;;;4945885;28;20050;-85
2023/07/29 08:13:21;;;;;;;22.58;20.60;;;24.10;98.00;;;;;;4930675;29;20413;-85
2023/07/29 08:15:52;;;;;;;24.52;21.67;;;23.70;99.90;;;;;;4950865;29;20043;-86
2023/07/29 08:18:18;;;;;;;23.63;20.52;;;23.70;99.90;;;;;;4924873;29;20074;-86
2023/07/29 08:20:58;;;;;;;23.17;20.95;;;25.30;99.90;;;;;;4951095;28;20031;-86
2023/07/29 08:23:25;;;;;;;25.55;22.95;;;23.50;99.90;;;;;;4949396;28;20090;-86
2023/07/29 08:25:56;;;;;;;26.35;23.80;;;23.40;1.00;;;;;;4948521;29;20117;-86
2023/07/29 08:28:23;;;;;;;25.70;23.23;;;24.10;99.90;;;;;;4944516;28;20569;-86
2023/07/29 08:30:49;;;;;;;26.25;23.80;;;23.50;99.90;;;;;;4931651;29;20044;-86
2023/07/29 08:33:15;;;;;;;29.85;26.90;;;23.20;99.90;;;;;;4945631;29;20086;-85
2023/07/29 08:35:40;;;;;;;28.33;25.83;;;23.20;3.70;;;;;;4947518;28;20031;-86
2023/07/29 08:38:06;;;;;;;28.05;25.45;;;23.70;1.00;;;;;;4937009;28;20040;-85
2023/07/29 08:40:34;;;;;;;29.73;25.73;;;22.70;13.30;;;;;;4928446;29;20043;-86
2023/07/29 08:43:04;;;;;;;27.67;25.20;;;22.50;79.70;;;;;;4939956;29;20042;-85
2023/07/29 08:45:34;;;;;;;26.35;23.95;;;23.70;73.30;;;;;;4962601;28;20146;-85
2023/07/29 08:48:06;;;;;;;28.33;24.95;;;22.60;97.60;;;;;;4944943;28;20063;-85
2023/07/29 08:50:32;;;;;;;25.35;23.13;;;22.90;88.00;;;;;;4946968;28;20083;-86
2023/07/29 08:53:00;;;;;;;27.35;24.85;;;22.80;1.00;;;;;;4930880;29;20040;-85
2023/07/29 08:55:26;;;;;;;28.55;25.67;;;23.80;1.00;;;;;;4927005;29;20039;-85
2023/07/29 08:57:52;;;;;;;27.63;25.23;;;23.00;1.00;;;;;;4928724;29;20043;-85
2023/07/29 09:00:19;;;;;;;28.20;25.70;;;23.30;99.90;;;;;;4943502;29;20477;-86
2023/07/29 09:02:45;;;;;;;28.77;26.10;;;24.20;99.90;;;;;;4923319;29;20038;-86
2023/07/29 09:05:10;;;;;;;32.28;29.27;;;23.40;99.90;;;;;;4945819;28;20039;-85
2023/07/29 09:07:36;;;;;;;30.20;27.40;;;22.70;99.90;;;;;;4947641;29;20055;-85
2023/07/29 09:10:02;;;;;;;31.10;28.10;;;22.80;99.90;;;;;;4925777;29;20099;-85
2023/07/29 09:12:28;;;;;;;30.85;27.70;;;22.70;1.00;;;;;;4939724;29;20043;-86
2023/07/29 09:14:54;;;;;;;29.55;26.55;;;23.30;1.00;;;;;;4930705;29;20039;-86
2023/07/29 09:17:21;;;;;;;29.85;26.98;;;23.00;99.90;;;;;;4948233;28;20397;-86
2023/07/29 09:19:51;;;;;;;26.83;24.27;;;23.50;99.90;;;;;;4944225;29;20039;-85
2023/07/29 09:22:20;;;;;;;25.75;23.30;;;22.80;53.20;;;;;;4951248;29;20043;-85
2023/07/29 09:24:46;;;;;;;27.52;25.02;;;24.00;22.10;;;;;;4948456;29;20043;-86
2023/07/29 09:27:26;;;;;;;27.40;24.70;;;23.30;1.00;;;;;;4949464;29;20046;-85
2023/07/29 09:29:52;;;;;;;25.13;22.70;;;23.30;1.00;;;;;;4951479;29;20043;-85
2023/07/29 09:32:22;;;;;;;25.17;22.98;;;23.60;99.90;;;;;;4933734;29;20043;-85
2023/07/29 09:34:48;;;;;;;25.92;23.52;;;23.60;1.00;;;;;;4949998;29;20093;-85
2023/07/29 09:37:20;;;;;;;28.10;25.60;;;23.40;99.90;;;;;;4925000;29;20417;-86
2023/07/29 09:39:47;;;;;;;25.08;22.85;;;23.80;99.90;;;;;;4945382;28;20019;-86
2023/07/29 09:42:18;;;;;;;27.05;24.45;;;23.90;99.90;;;;;;4948561;29;20122;-86
2023/07/29 09:44:43;;;;;;;26.10;23.80;;;23.70;50.00;;;;;;4947668;29;20117;-86
2023/07/29 09:47:09;;;;;;;27.23;24.67;;;23.60;1.00;;;;;;4940633;29;20051;-85
2023/07/29 09:49:38;;;;;;;27.52;24.65;;;23.60;26.70;;;;;;4933723;29;20568;-85
2023/07/29 09:52:05;;;;;;;26.90;24.23;;;23.70;1.00;;;;;;4933035;29;20432;-86
2023/07/29 09:54:31;;;;;;;28.02;25.40;;;23.40;1.00;;;;;;4949960;29;20035;-86
2023/07/29 09:56:56;;;;;;;32.65;28.60;;;23.40;1.00;;;;;;4948851;28;20035;-85
2023/07/29 09:59:23;;;;;;;29.75;26.80;;;23.10;99.90;;;;;;4934884;29;20093;-85
2023/07/29 10:01:50;;;;;;;29.25;26.55;;;22.90;99.90;;;;;;4932997;29;20042;-86
2023/07/29 10:04:16;;;;;;;27.20;24.42;;;22.90;99.90;;;;;;4943888;28;20049;-85
2023/07/29 10:06:45;;;;;;;28.10;25.60;;;22.90;99.90;;;;;;4935302;29;20614;-85
2023/07/29 10:09:12;;;;;;;29.10;26.27;;;23.10;99.90;;;;;;4942840;28;20063;-85
2023/07/29 10:11:38;;;;;;;28.60;25.77;;;23.20;99.90;;;;;;4945141;29;20047;-85
2023/07/29 10:14:04;;;;;;;29.42;26.65;;;23.40;99.90;;;;;;4958197;28;20042;-85
2023/07/29 10:16:30;;;;;;;28.58;25.80;;;23.20;99.90;;;;;;4939796;29;20040;-85
2023/07/29 10:18:56;;;;;;;29.92;27.02;;;23.20;99.90;;;;;;4933152;29;20051;-85
2023/07/29 10:21:22;;;;;;;30.55;27.50;;;23.10;99.90;;;;;;4946724;28;20642;-85
2023/07/29 10:23:53;;;;;;;31.90;28.67;;;22.90;99.90;;;;;;4947393;28;20485;-86
2023/07/29 10:26:20;;;;;;;31.77;28.75;;;22.50;1.00;;;;;;4929602;29;20412;-85
2023/07/29 10:28:47;;;;;;;31.40;28.40;;;22.60;99.90;;;;;;4934161;28;20051;-85
2023/07/29 10:31:16;;;;;;;31.65;28.45;;;22.80;99.90;;;;;;4931248;29;20540;-85
2023/07/29 10:33:42;;;;;;;30.25;27.60;;;23.10;99.90;;;;;;4948600;29;20097;-85
2023/07/29 10:36:08;;;;;;;30.20;27.60;;;23.80;99.90;;;;;;4933394;29;20433;-85
2023/07/29 10:38:34;;;;;;;28.65;26.25;;;22.90;99.90;;;;;;4945959;28;20098;-85
2023/07/29 10:41:00;;;;;;;28.88;26.08;;;22.30;50.00;;;;;;4946315;28;20039;-85
2023/07/29 10:43:34;;;;;;;28.90;26.30;;;23.40;1.00;;;;;;4962251;28;20047;-86
2023/07/29 10:46:19;;;;;;;28.45;25.92;;;22.30;99.90;;;;;;4947128;29;20402;-84
2023/07/29 10:48:50;;;;;;;29.10;26.10;;;22.20;95.60;;;;;;4938808;29;20462;-84
2023/07/29 10:51:22;;;;;;;24.83;22.55;;;22.20;36.00;;;;;;4941275;28;20412;-84
2023/07/29 10:53:48;;;;;;;24.40;22.20;;;22.20;1.00;;;;;;4949462;29;20134;-84
2023/07/29 10:56:24;;;;;;;24.60;22.27;;;22.30;99.90;;;;;;4945160;29;20122;-85
2023/07/29 10:58:49;;;;;;;24.55;21.70;;;22.90;99.90;;;;;;4940445;29;20056;-84
2023/07/29 11:01:27;;;;;;;21.92;19.90;;;23.50;62.80;;;;;;4933091;29;20047;-84
2023/07/29 11:04:23;;;;;;;22.50;20.40;;;22.50;1.00;;;;;;4954794;29;20453;-84
2023/07/29 11:07:04;;;;;;;23.48;21.48;;;22.70;1.00;;;;;;4939133;29;20063;-85
2023/07/29 11:09:48;;;;;;;21.77;19.67;;;22.80;99.90;;;;;;4927520;29;20059;-84
2023/07/29 11:12:51;;;;;;;21.67;19.55;;;23.10;99.90;;;;;;4951971;29;20054;-85
2023/07/29 11:15:26;;;;;;;17.30;15.90;;;23.20;99.90;;;;;;4946228;29;20441;-84
2023/07/29 11:17:54;;;;;;;19.00;17.30;;;23.40;99.90;;;;;;4920792;29;20150;-84
2023/07/29 11:20:24;;;;;;;20.23;18.30;;;23.50;1.00;;;;;;4947681;28;20038;-85
2023/07/29 11:22:50;;;;;;;20.65;18.70;;;23.50;1.00;;;;;;4965673;28;20121;-84
2023/07/29 11:25:18;;;;;;;21.05;18.90;;;23.70;1.00;;;;;;4972410;28;20039;-84
2023/07/29 11:27:44;;;;;;;18.65;16.65;;;23.70;99.90;;;;;;4951345;28;20692;-84
2023/07/29 11:30:12;;;;;;;21.25;19.17;;;23.50;99.90;;;;;;4973086;28;20138;-84
2023/07/29 11:32:39;;;;;;;21.80;19.95;;;23.50;99.90;;;;;;4944279;28;20461;-84
2023/07/29 11:35:07;;;;;;;22.02;20.08;;;23.50;99.90;;;;;;4945385;28;20070;-84
2023/07/29 11:37:34;;;;;;;23.13;20.77;;;23.50;99.90;;;;;;4981347;28;20050;-84
2023/07/29 11:40:00;;;;;;;23.25;20.95;;;23.40;99.90;;;;;;4966933;28;20046;-85
2023/07/29 11:42:26;;;;;;;22.00;19.90;;;23.70;1.00;;;;;;4956131;28;20587;-84
2023/07/29 11:44:52;;;;;;;22.85;20.50;;;23.70;99.90;;;;;;4972624;28;20049;-85
2023/07/29 11:47:17;;;;;;;21.50;19.58;;;23.50;1.00;;;;;;4951403;28;20043;-85
2023/07/29 11:49:43;;;;;;;21.65;19.45;;;23.50;1.00;;;;;;4973078;28;20039;-85
2023/07/29 11:52:10;;;;;;;22.30;19.83;;;23.70;1.00;;;;;;4964027;28;20046;-85
2023/07/29 11:54:38;;;;;;;18.65;16.85;;;24.30;1.00;;;;;;4966086;28;20035;-85
2023/07/29 11:57:08;;;;;;;20.05;18.27;;;23.70;99.90;;;;;;4969870;28;20039;-85
2023/07/29 11:59:35;;;;;;;17.23;15.43;;;23.50;99.90;;;;;;4972316;28;20126;-84
2023/07/29 12:02:05;;;;;;;16.10;14.50;;;23.50;99.90;;;;;;4964800;28;20438;-84
2023/07/29 12:04:31;;;;;;;17.77;15.98;;;23.40;99.90;;;;;;4945838;28;20092;-85
2023/07/29 12:06:57;;;;;;;18.73;17.00;;;23.40;99.90;;;;;;4950345;28;20063;-85
2023/07/29 12:09:23;;;;;;;19.85;17.83;;;23.30;99.90;;;;;;4956750;28;20035;-85
2023/07/29 12:11:49;;;;;;;20.13;18.10;;;23.30;99.90;;;;;;4967204;28;20040;-84
2023/07/29 12:14:16;;;;;;;20.70;17.75;;;23.90;99.90;;;;;;4938199;28;20047;-85
2023/07/29 12:16:48;;;;;;;19.65;17.55;;;24.70;99.90;;;;;;4960796;28;20147;-84
2023/07/29 12:19:14;;;;;;;18.05;16.45;;;23.10;99.90;;;;;;4952613;29;20039;-83
2023/07/29 12:21:42;;;;;;;20.77;18.00;;;23.10;99.90;;;;;;4963787;28;20496;-85
2023/07/29 12:24:07;;;;;;;21.88;19.63;;;23.50;99.90;;;;;;4964105;28;20039;-84
2023/07/29 12:26:35;;;;;;;22.52;20.52;;;23.10;99.90;;;;;;4953739;28;20049;-84
2023/07/29 12:29:12;;;;;;;23.52;20.75;;;23.20;99.90;;;;;;4945896;28;20811;-84
2023/07/29 12:31:38;;;;;;;22.05;19.85;;;23.30;99.90;;;;;;4964101;28;20039;-84